Dolinsk, Russia
Current Conditions -  °F | °C
As of 7:00 PM on Thursday 29 Jan 2015 (Local Time) from UHSS Reporting Station
Scattered Clouds Scattered Clouds  
Wind Chill: 13°   Ceiling: Unl
Heat Index: 19°   Visibility: 6mi
Dew Point: 12°   Wind: 4mph
Humidity: 74%   Direction: 200°SSW
Pressure: 30.09"   Gusts: NA
Location:  47.35°N, 142.8°E
Report Text: UHSS 290800Z 20002MPS 9999 SCT025CB M07/M11 Q1019 NOSIG RMK MTOBSC QFE763/1017 19820355
Loading
Personal Weather Stations






























Interactive Weather Map New forecast layout! Learn more

10-Day Weather Forecast

Advertisements
Track Severe Weather on mobile